Station 44058 - Stingray Point, VA Image indicating link to RSS feed of recent meteorological observations for station 44058


Conditions at 44058 as of
(9:06 pm EDT on 07/17/2024)
0106 GMT on 07/18/2024:
     

Click on the graph icon in the table below to see a time series plot of the last five days of that observation.

5-day plot - Wind Direction Wind Direction (WDIR):SSW ( 210 deg true )
5-day plot - Wind Speed Wind Speed (WSPD): 11.7 kts
5-day plot - Wind Gust Wind Gust (GST): 15.5 kts
5-day plot - Wave Height Wave Height (WVHT): 1.0 ft
5-day plot - Dominant Wave Period Dominant Wave Period (DPD): 13 sec
5-day plot - Air Temperature Air Temperature (ATMP): 82.4 °F
5-day plot - Water Temperature Water Temperature (WTMP): 84.2 °F
5-day plot - Salinity Salinity (SAL): 15.11 psu
5-day plot - Wind Speed at 10 Meters Wind Speed at 10 meters (WSPD10M): 13.6 kts
5-day plot - Wind Speed at 20 Meters Wind Speed at 20 meters (WSPD20M): 15.5 kts
5-day plot -  Wind Speed, Wind Gust and Atmospheric Pressure Combined plot of Wind Speed, Gust, and Air Pressure
Previous observations
TIME
(EDT)
5-day plot - Wind Direction
WDIR
 
5-day plot - Wind Speed
WSPD
kts
5-day plot - Wind Gust
GST
kts
5-day plot - Wave Height
WVHT
ft
5-day plot - Dominant Wave Period
DPD
sec
5-day plot - Average Wave Period
APD
sec
5-day plot - Mean Wave Direction
MWD
 
5-day plot - Atmospheric Pressure
PRES
in
5-day plot - Pressure Tendency
PTDY
in
5-day plot - Air Temperature
ATMP
°F
5-day plot - Water Temperature
WTMP
°F
5-day plot - Dew Point
DEWP
°F
5-day plot - Salinity
SAL
psu
5-day plot - Visibility
VIS
nmi
5-day plot - Tide (above MLLW)
TIDE
ft
2024-07-17 09:00 pmSSW 11.7 15.5 1.0 13---- 82.4 84.2- 15.06--
2024-07-17 08:54 pmSSW 11.7 13.6 1.0 13---- 82.4 84.2- 15.05--
2024-07-17 08:48 pmSSW 9.7 13.6 1.0 13---- 82.4 84.2- 15.04--
2024-07-17 08:30 pmSSW 11.7 15.5 1.0 12---- 82.4 84.4- 14.90--
2024-07-17 08:24 pmSSW 11.7 13.6 1.0 11---- 82.6 84.4- 14.89--
2024-07-17 08:18 pmSSW 11.7 13.6 1.0 11---- 82.6 84.4- 14.87--
2024-07-17 08:12 pmSSW 11.7 15.5 1.0 11---- 82.6 84.4- 14.92--
2024-07-17 08:06 pmSSW 11.7 15.5 1.6 11---- 82.6 84.4- 15.00--
2024-07-17 08:00 pmSSW 11.7 17.5 1.6 11---- 82.6 84.2- 15.07--
2024-07-17 07:54 pmSSW 13.6 17.5 1.6 11---- 82.6 84.2- 15.12--
2024-07-17 07:48 pmSSW 11.7 15.5 1.6 11---- 82.6 84.2- 15.19--
2024-07-17 07:42 pmSSW 11.7 17.5 1.3 10---- 82.6 84.2- 15.21--
2024-07-17 07:36 pmSSW 13.6 19.4 1.3 10---- 82.8 84.4- 15.24--
2024-07-17 07:30 pmSSW 13.6 17.5 1.3 10---- 82.8 84.4- 15.22--
2024-07-17 07:18 pmSSW 13.6 15.5 1.3 10---- 83.1 84.6- 15.23--
2024-07-17 07:06 pmSSW 15.5 19.4 1.6 11---- 83.5 84.6- 15.23--
2024-07-17 07:00 pmSSW 17.5 21.4 1.6 11---- 83.7 84.6- 15.23--
2024-07-17 06:54 pmSSW 17.5 23.3 1.6 11---- 83.8 84.6- 15.31--
2024-07-17 06:42 pmSSW 13.6 19.4 1.6 12---- 83.8 85.6- 15.34--
2024-07-17 06:36 pmSSW 13.6 17.5 1.6 12---- 83.3 85.6- 15.23--
2024-07-17 06:30 pmSSW 15.5 21.4 1.6 12---- 83.3 85.5- 15.09--
2024-07-17 06:24 pm S 15.5 21.4 1.0 12---- 83.5 85.6- 15.10--
2024-07-17 06:18 pm S 15.5 23.3 1.0 12---- 83.8 85.6- 15.14--
2024-07-17 06:06 pm S 15.5 23.3 1.0 14---- 85.3 85.1- 15.02--
2024-07-17 06:00 pmSSW 19.4 23.3 1.0 14---- 85.6 85.5- 14.86--
2024-07-17 05:54 pmSSW 21.4 27.2 1.0 14---- 86.5 85.8- 14.83--
2024-07-17 05:48 pm S 11.7 13.6 1.0 14---- 89.2 85.6- 14.78--
2024-07-17 05:42 pm S 11.7 15.5 0.7----- 89.2 85.6- 14.69--
2024-07-17 05:36 pm S 9.7 11.7 0.7----- 89.4 85.6- 14.64--
2024-07-17 05:30 pm S 9.7 13.6 0.7----- 89.4 85.6- 14.60--
2024-07-17 05:24 pm S 11.7 15.5 1.0 4---- 89.2 85.6- 14.58--
2024-07-17 05:18 pm S 9.7 13.6 1.0 4---- 89.1 85.3- 14.55--
2024-07-17 05:12 pm S 11.7 15.5 1.0 4---- 89.2 85.5- 14.50--
2024-07-17 05:06 pm S 9.7 13.6 1.0 4---- 89.2 85.6- 14.42--
2024-07-17 05:00 pmSSW 7.8 11.7 1.0 4---- 89.8 85.6- 14.34--
2024-07-17 04:54 pm SW 9.7 11.7 1.0 4---- 89.8 85.8- 14.26--
2024-07-17 04:48 pmSSW 5.8 9.7 1.0 4---- 89.8 85.8- 14.21--
2024-07-17 04:42 pm S 5.8 9.7 1.0 4---- 89.8 85.8- 14.19--
2024-07-17 04:36 pm S 3.9 7.8 1.0 4---- 89.6 85.8- 14.18--
2024-07-17 04:30 pmSSW 3.9 7.8 1.0 4---- 89.4 85.6- 14.18--
2024-07-17 04:24 pmSSW 7.8 11.7 1.0 4---- 89.1 85.6- 14.19--
2024-07-17 04:18 pmSSW 7.8 11.7 1.0 4---- 88.9 85.6- 14.19--
2024-07-17 04:12 pmSSW 7.8 11.7 1.0 4---- 89.1 85.6- 14.18--
2024-07-17 04:06 pmSSW 9.7 13.6 1.3 4---- 88.7 85.6- 14.18--
2024-07-17 04:00 pmSSW 9.7 11.7 1.3 4---- 88.3 85.6- 14.17--
2024-07-17 03:54 pmSSW 9.7 13.6 1.3 4---- 88.3 85.8- 14.17--
2024-07-17 03:48 pmSSW 9.7 11.7 1.3 4---- 88.3 85.8- 14.15--
2024-07-17 03:42 pmSSW 11.7 13.6 1.3 4---- 88.3 85.6- 14.14--
2024-07-17 03:36 pmSSW 9.7 11.7 1.3 4---- 88.2 85.5- 14.16--
2024-07-17 03:30 pmSSW 11.7 15.5 1.3 4---- 88.2 85.5- 14.18--
2024-07-17 03:24 pmSSW 9.7 13.6 1.3 3---- 88.0 85.5- 14.18--
2024-07-17 03:18 pmSSW 7.8 11.7 1.3 3---- 88.0 85.6- 14.17--
2024-07-17 03:12 pmSSW 11.7 13.6 1.3 3---- 87.8 85.6- 14.16--
2024-07-17 03:06 pm SW 9.7 13.6 1.0 3---- 88.0 85.5- 14.16--
2024-07-17 03:00 pmSSW 11.7 15.5 1.0 3---- 88.2 85.6- 14.17--
2024-07-17 02:54 pmSSW 11.7 15.5 1.0 3---- 87.6 85.6- 14.16--
2024-07-17 02:48 pm SW 11.7 15.5 1.0 3---- 87.8 85.6- 14.16--
2024-07-17 02:42 pmSSW 13.6 15.5 1.0 4---- 87.8 85.6- 14.16--
2024-07-17 02:36 pmSSW 11.7 15.5 1.0 4---- 87.6 85.6- 14.15--
2024-07-17 02:30 pmSSW 11.7 13.6 1.0 4---- 87.6 85.6- 14.13--
2024-07-17 02:24 pm SW 9.7 11.7 1.0 5---- 87.6 85.6- 14.12--
2024-07-17 02:18 pm SW 9.7 11.7 1.0 5---- 87.3 85.6- 14.14--
2024-07-17 02:12 pmSSW 11.7 13.6 1.0 5---- 87.1 85.6- 14.12--
2024-07-17 02:06 pm SW 9.7 11.7 1.0 5---- 87.1 85.8- 14.11--
2024-07-17 02:00 pmSSW 7.8 11.7 1.0 5---- 87.1 85.8- 14.08--
2024-07-17 01:54 pm SW 7.8 9.7 1.0 5---- 86.9 85.8- 14.08--
2024-07-17 01:48 pm SW 7.8 9.7 1.0 5---- 86.9 85.6- 14.08--
2024-07-17 01:42 pm SW 7.8 11.7 1.0 5---- 86.5 85.6- 14.07--
2024-07-17 01:36 pmWSW 7.8 9.7 1.0 5---- 86.4 85.6- 14.07--
2024-07-17 01:30 pmWSW 9.7 11.7 1.0 5---- 86.2 85.6- 14.07--
2024-07-17 01:24 pmWSW 11.7 13.6 1.0 5---- 86.2 85.6- 14.07--
2024-07-17 01:18 pmWSW 9.7 11.7 1.0 5---- 86.2 85.6- 14.05--
2024-07-17 01:12 pm SW 9.7 11.7 1.0 5---- 86.2 85.8- 14.04--
2024-07-17 01:06 pmSSW 9.7 11.7 1.0 5---- 86.0 85.6- 14.04--
2024-07-17 01:00 pm SW 9.7 11.7 1.0 5---- 86.0 85.5- 14.14--
2024-07-17 12:54 pmWSW 5.8 7.8 1.0 5---- 85.8 85.5- 14.16--
2024-07-17 12:48 pm SW 5.8 9.7 1.0 5---- 85.6 85.6- 14.18--
2024-07-17 12:42 pm SW 7.8 9.7 1.0 5---- 85.5 85.1- 14.24--
2024-07-17 12:30 pm SW 7.8 9.7 1.0 5---- 84.7 84.9- 14.49--
2024-07-17 12:18 pmWSW 9.7 11.7 1.0 4---- 84.4 84.7- 14.54--
2024-07-17 12:12 pm SW 9.7 13.6 1.0 4---- 84.2 84.7- 14.56--
2024-07-17 12:06 pm SW 7.8 9.7 1.3 4---- 83.8 84.7- 14.56--
2024-07-17 12:00 pmWSW 9.7 11.7 1.3 4---- 83.8 84.6- 14.58--
2024-07-17 11:54 amWSW 11.7 13.6 1.3 4---- 83.5 84.6- 14.60--
2024-07-17 11:48 am SW 9.7 13.6 1.3 4---- 83.1 84.4- 14.63--
2024-07-17 11:36 am SW 9.7 13.6 1.0 5---- 82.4 84.4- 14.65--
2024-07-17 11:30 am SW 11.7 15.5 1.0 5---- 82.2 84.4- 14.66--
2024-07-17 11:24 am SW 11.7 15.5 1.6 16---- 82.2 84.2- 14.67--
2024-07-17 11:18 am SW 11.7 13.6 1.6 16---- 82.2 84.2- 14.68--
2024-07-17 11:12 amWSW 11.7 13.6 1.6 16---- 82.2 84.2- 14.68--
2024-07-17 11:06 am SW 9.7 11.7 2.0 16---- 82.2 84.2- 14.65--
2024-07-17 11:00 amWSW 11.7 15.5 2.0 16---- 82.2 84.2- 14.64--
2024-07-17 10:54 amWSW 11.7 13.6 2.0 16---- 82.2 84.2- 14.64--
2024-07-17 10:48 amWSW 11.7 15.5 2.0 16---- 82.2 84.2- 14.63--
2024-07-17 10:42 am SW 13.6 17.5 1.6 17---- 82.0 84.2- 14.62--
2024-07-17 10:30 am SW 13.6 17.5 1.6 17---- 81.7 84.4- 14.59--
2024-07-17 10:24 am SW 13.6 19.4 1.3 17---- 81.7 84.4- 14.61--
2024-07-17 10:18 am SW 13.6 17.5 1.3 17---- 81.5 84.6- 14.63--
2024-07-17 10:12 am SW 13.6 17.5 1.3 17---- 81.7 84.4- 14.72--
2024-07-17 10:06 am SW 13.6 17.5 1.6 18---- 81.7 83.8- 14.75--
2024-07-17 10:00 am SW 15.5 19.4 1.6 18---- 81.5 83.8- 15.33--
2024-07-17 09:54 am SW 13.6 17.5 1.6 18---- 81.7 83.7- 15.30--
2024-07-17 09:48 am SW 13.6 17.5 1.6 18---- 81.7 83.7- 15.32--
2024-07-17 09:42 am SW 13.6 17.5 2.0 17---- 81.5 83.8- 15.34--
2024-07-17 09:36 am SW 13.6 19.4 2.0 17---- 81.5 83.8- 15.29--
2024-07-17 09:30 am SW 13.6 17.5 2.0 17---- 81.5 83.5- 15.27--
2024-07-17 09:24 am SW 13.6 17.5 1.3 17---- 81.3 83.5- 15.38--
2024-07-17 09:18 am SW 13.6 17.5 1.3 17---- 81.3 83.5- 15.40--
2024-07-17 09:12 am SW 13.6 15.5 1.3 17---- 81.3 83.1- 15.42--
2024-07-17 09:06 am SW 13.6 17.5 1.0 2---- 81.3 83.1- 15.51--
2024-07-17 09:00 amSSW 15.5 21.4 1.0 2---- 81.3 83.1- 15.52--
2024-07-17 08:54 am SW 13.6 19.4 1.0 2---- 81.3 83.1- 15.50--
2024-07-17 08:48 am SW 13.6 17.5 1.0 2---- 81.3 83.1- 15.50--
2024-07-17 08:30 am SW 13.6 17.5 2.3 15---- 81.9 82.9- 15.57--
2024-07-17 08:24 am SW 15.5 17.5 2.6 14---- 82.4 82.9- 15.61--
2024-07-17 08:18 am SW 13.6 17.5 2.6 14---- 82.6 82.9- 15.65--
2024-07-17 08:06 am SW 13.6 17.5 2.6 14---- 82.2 82.8- 15.71--
2024-07-17 08:00 am SW 13.6 17.5 2.6 14---- 82.4 82.8- 15.69--
2024-07-17 07:54 am SW 13.6 17.5 2.6 14---- 82.4 82.9- 15.62--
2024-07-17 07:42 am SW 13.6 17.5 3.0 15---- 81.9 83.1- 15.54--
2024-07-17 07:36 am SW 13.6 19.4 3.0 15---- 82.0 83.3- 15.45--
2024-07-17 07:30 am SW 13.6 17.5 3.0 15---- 82.0 83.3- 15.42--
2024-07-17 07:24 am SW 11.7 15.5 2.6 17---- 82.0 83.3- 15.36--
2024-07-17 07:18 am SW 15.5 17.5 2.6 17---- 81.9 83.5- 15.33--
2024-07-17 07:12 am SW 11.7 15.5 2.6 17---- 81.9 83.7- 15.29--
2024-07-17 07:06 am SW 13.6 15.5 4.6 17---- 82.0 83.7- 15.28--
2024-07-17 07:00 am SW 13.6 17.5 4.6 17---- 81.9 83.8- 15.24--
2024-07-17 06:54 am SW 13.6 15.5 4.6 17---- 82.0 83.8- 15.20--
2024-07-17 06:48 am SW 13.6 17.5 4.6 17---- 82.0 84.0- 15.14--
2024-07-17 06:42 am SW 13.6 17.5 2.6 17---- 81.7 84.0- 15.09--
2024-07-17 06:36 am SW 11.7 15.5 2.6 17---- 81.7 84.0- 15.02--
2024-07-17 06:30 am SW 13.6 17.5 2.6 17---- 81.7 84.2- 14.96--
2024-07-17 06:24 am SW 13.6 15.5 1.3 2---- 81.3 84.2- 14.91--
2024-07-17 06:18 am SW 9.7 13.6 1.3 2---- 81.3 84.2- 14.88--
2024-07-17 06:12 am SW 11.7 15.5 1.3 2---- 81.3 84.0- 14.67--
2024-07-17 06:06 am SW 11.7 13.6 1.3 5---- 81.3 84.0- 14.60--
2024-07-17 06:00 am SW 11.7 15.5 1.3 5---- 81.3 83.8- 14.54--
2024-07-17 05:54 am SW 11.7 13.6 1.3 5---- 81.3 84.0- 14.57--
2024-07-17 05:48 am SW 11.7 15.5 1.3 5---- 81.3 84.2- 14.56--
2024-07-17 05:42 am SW 13.6 17.5 1.3 4---- 81.5 84.2- 14.49--
2024-07-17 05:36 am SW 11.7 17.5 1.3 4---- 81.5 84.4- 14.45--
2024-07-17 05:30 am SW 11.7 15.5 1.3 4---- 81.5 84.2- 14.44--
2024-07-17 05:18 am SW 11.7 17.5 1.3 4---- 81.7 84.6- 14.40--
2024-07-17 05:12 am SW 13.6 17.5 1.3 4---- 81.7 84.6- 14.39--
2024-07-17 05:06 am SW 13.6 19.4 1.3 2---- 81.9 84.4- 14.42--
2024-07-17 05:00 am SW 13.6 17.5 1.3 2---- 81.9 84.4- 14.44--
2024-07-17 04:54 am SW 13.6 19.4 1.3 2---- 82.0 84.4- 14.46--
2024-07-17 04:48 amSSW 15.5 19.4 1.3 2---- 82.0 84.4- 14.45--
2024-07-17 04:42 amSSW 15.5 21.4 1.3 2---- 82.0 84.6- 14.45--
2024-07-17 04:36 amSSW 15.5 19.4 1.3 2---- 82.2 84.6- 14.44--
2024-07-17 04:30 amSSW 17.5 23.3 1.3 2---- 82.2 84.6- 14.44--
2024-07-17 04:24 amSSW 15.5 19.4 1.3 4---- 82.2 84.6- 14.43--
2024-07-17 04:18 amSSW 17.5 21.4 1.3 4---- 82.2 84.6- 14.44--
2024-07-17 04:12 amSSW 17.5 21.4 1.3 4---- 82.2 84.6- 14.44--
2024-07-17 04:06 amSSW 15.5 19.4 1.6 4---- 82.2 84.6- 14.44--
2024-07-17 04:00 amSSW 15.5 19.4 1.6 4---- 82.6 84.6- 14.43--
2024-07-17 03:54 amSSW 15.5 19.4 1.6 4---- 82.6 84.6- 14.43--
2024-07-17 03:48 am SW 15.5 19.4 1.6 4---- 82.6 84.6- 14.42--
2024-07-17 03:42 am SW 15.5 19.4 1.6 3---- 82.8 84.6- 14.42--
2024-07-17 03:30 am SW 15.5 19.4 1.6 3---- 82.8 84.6- 14.43--
2024-07-17 03:24 am SW 13.6 17.5 2.0 17---- 82.9 84.6- 14.42--
2024-07-17 03:18 am SW 15.5 19.4 2.0 17---- 82.9 84.6- 14.42--
2024-07-17 03:06 am SW 13.6 17.5 2.0 17---- 83.1 84.7- 14.41--
2024-07-17 03:00 am SW 15.5 19.4 1.3 3---- 83.3 84.7- 14.41--
2024-07-17 02:54 am SW 13.6 17.5 1.3 3---- 83.5 84.7- 14.41--
2024-07-17 02:48 am SW 13.6 19.4 1.3 3---- 83.5 84.7- 14.41--
2024-07-17 02:42 am SW 13.6 19.4 1.3 18---- 83.7 84.7- 14.41--
2024-07-17 02:36 am SW 13.6 19.4 1.3 18---- 83.7 84.7- 14.41--
2024-07-17 02:30 am SW 15.5 17.5 1.3 18---- 83.8 84.7- 14.41--
2024-07-17 02:24 am SW 13.6 17.5 1.3 4---- 83.8 84.7- 14.41--
2024-07-17 02:18 am SW 13.6 19.4 1.3 4---- 83.8 84.7- 14.42--
2024-07-17 02:06 am SW 15.5 19.4 1.3 4---- 84.2 84.9- 14.41--
2024-07-17 02:00 am SW 13.6 19.4 1.0 11---- 84.2 84.9- 14.40--
2024-07-17 01:48 am SW 15.5 19.4 1.0 11---- 84.4 84.9- 14.40--
2024-07-17 01:42 am SW 15.5 19.4 1.0 3---- 84.4 84.9- 14.39--
2024-07-17 01:36 am SW 15.5 19.4 1.0 3---- 84.6 84.9- 14.37--
2024-07-17 01:30 am SW 15.5 19.4 1.0 3---- 84.9 84.9- 14.33--
2024-07-17 01:24 am SW 15.5 19.4 1.0 3---- 85.1 85.1- 14.32--
2024-07-17 01:18 am SW 15.5 19.4 1.0 3---- 85.1 85.1- 14.31--
2024-07-17 01:12 am SW 15.5 17.5 1.0 3---- 85.3 85.1- 14.28--
2024-07-17 01:06 am SW 15.5 19.4 1.0 3---- 85.5 85.1- 14.27--
2024-07-17 01:00 am SW 13.6 17.5 1.0 11---- 85.5 85.1- 14.26--
2024-07-17 12:48 am SW 15.5 19.4 1.0 11---- 85.6 85.1- 14.25--
2024-07-17 12:36 am SW 13.6 15.5 1.3 12---- 85.5 85.3- 14.26--
2024-07-17 12:24 am SW 15.5 17.5 1.3 11---- 85.6 85.5- 14.21--
2024-07-17 12:18 am SW 13.6 15.5 1.3 11---- 85.6 85.5- 14.19--
2024-07-17 12:12 am SW 13.6 17.5 1.3 11---- 85.6 85.5- 14.21--
2024-07-17 12:06 am SW 13.6 15.5 1.3 11---- 85.6 85.5- 14.23--
2024-07-17 12:00 am SW 13.6 15.5 1.0 3---- 85.6 85.3- 14.31--
2024-07-16 11:54 pm SW 13.6 15.5 1.0 3---- 85.6 85.1- 14.36--
2024-07-16 11:48 pm SW 13.6 15.5 1.0 3---- 85.6 85.1- 14.39--
2024-07-16 11:42 pm SW 13.6 15.5 1.3 17---- 85.8 85.1- 14.40--
2024-07-16 11:36 pm SW 13.6 17.5 1.3 17---- 85.8 85.1- 14.41--
2024-07-16 11:30 pm SW 13.6 17.5 1.3 17---- 85.8 85.1- 14.40--
2024-07-16 11:18 pm SW 13.6 19.4 1.3 17---- 86.0 85.1- 14.38--
2024-07-16 11:12 pm SW 15.5 19.4 1.3 17---- 86.0 85.1- 14.38--
2024-07-16 11:06 pm SW 15.5 17.5 1.3 17---- 86.0 85.1- 14.44--
2024-07-16 11:00 pm SW 13.6 17.5 1.3 2---- 86.0 85.3- 14.55--
2024-07-16 10:54 pm SW 13.6 17.5 1.3 2---- 86.0 85.3- 14.62--
2024-07-16 10:42 pmSSW 15.5 19.4 1.3 2---- 86.2 85.3- 14.58--
2024-07-16 10:30 pmSSW 13.6 15.5 1.3 2---- 86.0 86.4- 14.94--
2024-07-16 10:24 pmSSW 13.6 19.4 1.0 2---- 86.0 85.8- 15.15--
2024-07-16 10:18 pmSSW 13.6 17.5 1.0 2---- 86.2 85.8- 15.15--
2024-07-16 10:06 pmSSW 13.6 17.5 1.0 2---- 86.4 85.8- 15.16--
2024-07-16 10:00 pmSSW 13.6 17.5 1.0 2---- 86.4 85.8- 15.16--
2024-07-16 09:54 pmSSW 13.6 19.4 1.0 2---- 86.4 85.6- 15.18--
2024-07-16 09:48 pmSSW 13.6 19.4 1.0 2---- 86.2 85.1- 15.14--
2024-07-16 09:42 pmSSW 13.6 17.5 1.0 2---- 86.4 85.1- 15.12--
2024-07-16 09:36 pmSSW 13.6 17.5 1.0 2---- 86.4 85.1- 15.16--
2024-07-16 09:30 pmSSW 13.6 15.5 1.0 2---- 86.4 85.1- 15.13--
2024-07-16 09:24 pmSSW 13.6 15.5 1.0 2---- 86.5 85.1- 15.07--
2024-07-16 09:18 pmSSW 13.6 19.4 1.0 2---- 86.5 85.1- 15.04--
2024-07-16 09:12 pmSSW 13.6 17.5 1.0 2---- 86.5 85.1- 15.02--
2024-07-16 09:06 pmSSW 11.7 15.5 1.0 2---- 86.5 85.1- 14.99--
2024-07-16 09:00 pmSSW 11.7 15.5 0.7----- 86.5 84.9- 14.98--

Disclaimer: Ocean current directions are reported to the nearest 10 degrees and speeds are measured to the nearest whole centimeter per second.

Ocean Current Data for 44058

Unit of Measure:   Time Zone:   
8:54 pm EDT 8:00 pm EDT 7:54 pm EDT 7:48 pm EDT 7:42 pm EDT 7:36 pm EDT 7:30 pm EDT 7:24 pm EDT
Depth
ft
Dir
°
Speed
kts
Dir
°
Speed
kts
Dir
°
Speed
kts
Dir
°
Speed
kts
Dir
°
Speed
kts
Dir
°
Speed
kts
Dir
°
Speed
kts
Dir
°
Speed
kts
10 230 5.36270 1.11250 1.73230 1.42220 2.51350 0.54240 1.42260 1.57

Previous (up to 48) reports of ocean current data for 44058

Ocean Current Stick Plots are available in metric units only:

All Instruments - 1-day plot - ocean current 1-day plot     3-day plot - ocean current 3-day plot     5-day plot - ocean current 5-day plot     


Ocean Conditions at 44058 as of
(9:18 pm EDT on 07/17/2024)
0118 GMT on 07/18/2024:

These oceanographic data are displayed in rounded times.

     

Click on the graph icon in the table below to see a time series plot of the last five days of that observation.

Depth (DEPTH): 3.3 ft
5-day plot - Ocean Temperature Ocean Temperature (OTMP):84.20 °F
5-day plot - Salinity Salinity (SAL):15.11 psu
Previous observations
TIME
(EDT)
DEPTH
ft
5-day plot - Ocean Temperature
OTMP
°F
5-day plot - Conductivity
COND
mS/cm
5-day plot - Salinity
SAL
psu
5-day plot - Oxygen Concentration
O2%
%
5-day plot - Oxygen Concentration
O2PPM
ppm
5-day plot - Chlorophyll
CLCON
ug/l
5-day plot - Turbidity
TURB
FTU
5-day plot - pH
PH
 
5-day plot - Eh
EH
mv
2024-07-17 09:06 pm 3.384.25-15.06------
2024-07-17 09:00 pm 3.384.27-15.05------
2024-07-17 08:54 pm 3.384.27-15.04------
2024-07-17 08:48 pm 3.384.29-15.02------
2024-07-17 08:30 pm 3.384.42-14.90------
2024-07-17 08:24 pm 3.384.42-14.89------
2024-07-17 08:18 pm 3.384.43-14.87------
2024-07-17 08:12 pm 3.384.38-14.92------
2024-07-17 08:06 pm 3.384.34-15.00------
2024-07-17 08:00 pm 3.384.25-15.07------
2024-07-17 07:54 pm 3.384.20-15.12------
2024-07-17 07:48 pm 3.384.15-15.19------
2024-07-17 07:42 pm 3.384.22-15.21------
2024-07-17 07:36 pm 3.384.34-15.24------
2024-07-17 07:30 pm 3.384.42-15.22------
2024-07-17 07:24 pm 3.384.45-15.23------
2024-07-17 07:18 pm 3.384.49-15.23------
2024-07-17 07:06 pm 3.384.56-15.23------
2024-07-17 07:00 pm 3.384.54-15.31------
2024-07-17 06:54 pm 3.384.49-15.34------
2024-07-17 06:42 pm 3.385.57-15.23------
2024-07-17 06:36 pm 3.385.68-15.09------
2024-07-17 06:30 pm 3.385.53-15.10------
2024-07-17 06:24 pm 3.385.57-15.14------
2024-07-17 06:18 pm 3.385.60-15.02------
2024-07-17 06:06 pm 3.385.12-14.86------
2024-07-17 06:00 pm 3.385.41-14.83------
2024-07-17 05:54 pm 3.385.75-14.78------
2024-07-17 05:48 pm 3.385.60-14.69------
2024-07-17 05:42 pm 3.385.68-14.64------
2024-07-17 05:36 pm 3.385.64-14.60------
2024-07-17 05:30 pm 3.385.66-14.58------
2024-07-17 05:24 pm 3.385.68-14.55------
2024-07-17 05:18 pm 3.385.28-14.50------
2024-07-17 05:12 pm 3.385.41-14.42------
2024-07-17 05:06 pm 3.385.59-14.34------
2024-07-17 05:00 pm 3.385.60-14.26------
2024-07-17 04:54 pm 3.385.75-14.21------
2024-07-17 04:48 pm 3.385.78-14.19------
2024-07-17 04:42 pm 3.385.78-14.18------
2024-07-17 04:36 pm 3.385.77-14.18------
2024-07-17 04:30 pm 3.385.68-14.19------
2024-07-17 04:24 pm 3.385.64-14.19------
2024-07-17 04:18 pm 3.385.66-14.18------
2024-07-17 04:12 pm 3.385.66-14.18------
2024-07-17 04:06 pm 3.385.71-14.17------
2024-07-17 04:00 pm 3.385.68-14.17------
2024-07-17 03:54 pm 3.385.77-14.15------
2024-07-17 03:48 pm 3.385.77-14.14------
2024-07-17 03:42 pm 3.385.64-14.16------
2024-07-17 03:36 pm 3.385.55-14.18------
2024-07-17 03:30 pm 3.385.50-14.18------
2024-07-17 03:24 pm 3.385.53-14.17------
2024-07-17 03:18 pm 3.385.57-14.16------
2024-07-17 03:12 pm 3.385.59-14.16------
2024-07-17 03:06 pm 3.385.50-14.17------
2024-07-17 03:00 pm 3.385.57-14.16------
2024-07-17 02:54 pm 3.385.57-14.16------
2024-07-17 02:48 pm 3.385.59-14.16------
2024-07-17 02:42 pm 3.385.64-14.15------
2024-07-17 02:36 pm 3.385.66-14.13------
2024-07-17 02:30 pm 3.385.68-14.12------
2024-07-17 02:24 pm 3.385.60-14.14------
2024-07-17 02:18 pm 3.385.68-14.12------
2024-07-17 02:12 pm 3.385.68-14.11------
2024-07-17 02:06 pm 3.385.78-14.08------
2024-07-17 02:00 pm 3.385.78-14.08------
2024-07-17 01:54 pm 3.385.75-14.08------
2024-07-17 01:48 pm 3.385.73-14.07------
2024-07-17 01:42 pm 3.385.64-14.07------
2024-07-17 01:36 pm 3.385.60-14.07------
2024-07-17 01:30 pm 3.385.62-14.07------
2024-07-17 01:24 pm 3.385.55-14.05------
2024-07-17 01:18 pm 3.385.64-14.04------
2024-07-17 01:12 pm 3.385.75-14.04------
2024-07-17 01:06 pm 3.385.60-14.14------
2024-07-17 01:00 pm 3.385.46-14.16------
2024-07-17 12:54 pm 3.385.50-14.18------
2024-07-17 12:48 pm 3.385.55-14.24------
2024-07-17 12:42 pm 3.385.08-14.49------
2024-07-17 12:30 pm 3.384.90-14.54------
2024-07-17 12:18 pm 3.384.83-14.56------
2024-07-17 12:12 pm 3.384.78-14.56------
2024-07-17 12:06 pm 3.384.67-14.58------
2024-07-17 12:00 pm 3.384.58-14.60------
2024-07-17 11:54 am 3.384.52-14.63------
2024-07-17 11:48 am 3.384.45-14.65------
2024-07-17 11:36 am 3.384.33-14.66------
2024-07-17 11:30 am 3.384.31-14.67------
2024-07-17 11:24 am 3.384.27-14.68------
2024-07-17 11:18 am 3.384.24-14.68------
2024-07-17 11:12 am 3.384.25-14.65------
2024-07-17 11:06 am 3.384.25-14.64------
2024-07-17 11:00 am 3.384.24-14.64------
2024-07-17 10:54 am 3.384.25-14.63------
2024-07-17 10:48 am 3.384.24-14.62------
2024-07-17 10:42 am 3.384.27-14.59------
2024-07-17 10:30 am 3.384.29-14.61------
2024-07-17 10:24 am 3.384.31-14.63------
2024-07-17 10:18 am 3.384.49-14.72------
2024-07-17 10:12 am 3.384.33-14.75------
2024-07-17 10:06 am 3.383.88-15.33------
2024-07-17 10:00 am 3.383.82-15.30------
2024-07-17 09:54 am 3.383.71-15.32------
2024-07-17 09:48 am 3.383.70-15.34------
2024-07-17 09:42 am 3.383.75-15.29------
2024-07-17 09:36 am 3.383.79-15.27------
2024-07-17 09:30 am 3.383.55-15.38------
2024-07-17 09:24 am 3.383.46-15.40------
2024-07-17 09:18 am 3.383.41-15.42------
2024-07-17 09:12 am 3.383.08-15.51------
2024-07-17 09:06 am 3.383.10-15.52------
2024-07-17 09:00 am 3.383.10-15.50------
2024-07-17 08:54 am 3.383.14-15.50------
2024-07-17 08:48 am 3.383.16-15.49------
2024-07-17 08:30 am 3.382.99-15.57------
2024-07-17 08:24 am 3.382.94-15.61------
2024-07-17 08:18 am 3.382.89-15.65------
2024-07-17 08:06 am 3.382.80-15.71------
2024-07-17 08:00 am 3.382.81-15.69------
2024-07-17 07:54 am 3.382.92-15.62------
2024-07-17 07:42 am 3.383.14-15.54------
2024-07-17 07:36 am 3.383.28-15.45------
2024-07-17 07:30 am 3.383.32-15.42------
2024-07-17 07:24 am 3.383.34-15.36------
2024-07-17 07:18 am 3.383.52-15.33------
2024-07-17 07:12 am 3.383.70-15.29------
2024-07-17 07:06 am 3.383.73-15.28------
2024-07-17 07:00 am 3.383.80-15.24------
2024-07-17 06:54 am 3.383.88-15.20------
2024-07-17 06:48 am 3.383.98-15.14------
2024-07-17 06:42 am 3.384.02-15.09------
2024-07-17 06:36 am 3.384.07-15.02------
2024-07-17 06:30 am 3.384.13-14.96------
2024-07-17 06:24 am 3.384.15-14.91------
2024-07-17 06:18 am 3.384.22-14.88------
2024-07-17 06:12 am 3.384.00-14.67------
2024-07-17 06:06 am 3.383.93-14.60------
2024-07-17 06:00 am 3.383.86-14.54------
2024-07-17 05:54 am 3.383.95-14.57------
2024-07-17 05:48 am 3.384.11-14.56------
2024-07-17 05:42 am 3.384.20-14.49------
2024-07-17 05:36 am 3.384.29-14.45------
2024-07-17 05:30 am 3.384.29-14.44------
2024-07-17 05:18 am 3.384.49-14.40------
2024-07-17 05:12 am 3.384.49-14.39------
2024-07-17 05:06 am 3.384.47-14.42------
2024-07-17 05:00 am 3.384.45-14.44------
2024-07-17 04:54 am 3.384.45-14.46------
2024-07-17 04:48 am 3.384.45-14.45------
2024-07-17 04:42 am 3.384.47-14.45------
2024-07-17 04:36 am 3.384.49-14.44------
2024-07-17 04:30 am 3.384.49-14.44------
2024-07-17 04:24 am 3.384.51-14.43------
2024-07-17 04:18 am 3.384.52-14.44------
2024-07-17 04:12 am 3.384.52-14.44------
2024-07-17 04:06 am 3.384.52-14.44------
2024-07-17 04:00 am 3.384.54-14.43------
2024-07-17 03:54 am 3.384.56-14.43------
2024-07-17 03:48 am 3.384.58-14.42------
2024-07-17 03:42 am 3.384.60-14.42------
2024-07-17 03:30 am 3.384.61-14.43------
2024-07-17 03:24 am 3.384.63-14.42------
2024-07-17 03:18 am 3.384.65-14.42------
2024-07-17 03:06 am 3.384.69-14.41------
2024-07-17 03:00 am 3.384.70-14.41------
2024-07-17 02:54 am 3.384.72-14.41------
2024-07-17 02:48 am 3.384.72-14.41------
2024-07-17 02:42 am 3.384.74-14.41------
2024-07-17 02:36 am 3.384.74-14.41------
2024-07-17 02:30 am 3.384.76-14.41------
2024-07-17 02:24 am 3.384.78-14.41------
2024-07-17 02:18 am 3.384.78-14.42------
2024-07-17 02:06 am 3.384.83-14.41------
2024-07-17 02:00 am 3.384.87-14.40------
2024-07-17 01:48 am 3.384.88-14.40------
2024-07-17 01:42 am 3.384.90-14.39------
2024-07-17 01:36 am 3.384.96-14.37------
2024-07-17 01:30 am 3.385.01-14.33------
2024-07-17 01:24 am 3.385.01-14.32------
2024-07-17 01:18 am 3.385.05-14.31------
2024-07-17 01:12 am 3.385.10-14.28------
2024-07-17 01:06 am 3.385.12-14.27------
2024-07-17 01:00 am 3.385.14-14.26------
2024-07-17 12:48 am 3.385.19-14.25------
2024-07-17 12:36 am 3.385.26-14.26------
2024-07-17 12:24 am 3.385.37-14.21------
2024-07-17 12:18 am 3.385.41-14.19------
2024-07-17 12:12 am 3.385.39-14.21------
2024-07-17 12:06 am 3.385.37-14.23------
2024-07-17 12:00 am 3.385.26-14.31------
2024-07-16 11:54 pm 3.385.19-14.36------
2024-07-16 11:48 pm 3.385.14-14.39------
2024-07-16 11:42 pm 3.385.14-14.40------
2024-07-16 11:36 pm 3.385.15-14.41------
2024-07-16 11:30 pm 3.385.15-14.40------
2024-07-16 11:18 pm 3.385.10-14.38------
2024-07-16 11:12 pm 3.385.12-14.38------
2024-07-16 11:06 pm 3.385.15-14.44------
2024-07-16 11:00 pm 3.385.23-14.55------
2024-07-16 10:54 pm 3.385.32-14.62------
2024-07-16 10:42 pm 3.385.35-14.58------
2024-07-16 10:30 pm 3.386.32-14.94------
2024-07-16 10:24 pm 3.385.75-15.15------
2024-07-16 10:18 pm 3.385.77-15.15------
2024-07-16 10:06 pm 3.385.75-15.16------
2024-07-16 10:00 pm 3.385.73-15.16------
2024-07-16 09:54 pm 3.385.68-15.18------
2024-07-16 09:48 pm 3.385.06-15.14------
2024-07-16 09:42 pm 3.385.06-15.12------
2024-07-16 09:36 pm 3.385.19-15.16------
2024-07-16 09:30 pm 3.385.15-15.13------
2024-07-16 09:24 pm 3.385.08-15.07------
2024-07-16 09:18 pm 3.385.08-15.04------
2024-07-16 09:12 pm 3.385.06-15.02------
2024-07-16 09:06 pm 3.385.01-14.99------
2024-07-16 09:00 pm 3.384.99-14.98------